Aviation Digital Data Service (ADDS)

Output produced by METARs form (1433 UTC 27 March 2017)
found at http://aviationweather.gov/adds/metars/
 
KFAY 271120Z 2712/2812 00000KT P6SM OVC090 
     FM271400 21008KT P6SM BKN040 
     FM280000 18007KT P6SM BKN250 
     FM280800 21005KT 6SM BR OVC015 
     FM281100 20005KT 1 1/2SM -RA BR OVC003